createdAt,value
2017-04-22T00:00:28.736Z,10.13
2017-04-22T00:01:09.370Z,10.13
2017-04-22T00:01:50.021Z,10.07
2017-04-22T00:02:30.606Z,10.07
2017-04-22T00:03:11.178Z,10.12
2017-04-22T00:03:51.749Z,10.07
2017-04-22T00:04:32.363Z,10.02
2017-04-22T00:05:12.977Z,10.09
2017-04-22T00:05:53.602Z,10.01
2017-04-22T00:06:34.193Z,10.02
2017-04-22T00:07:14.839Z,9.95
2017-04-22T00:07:55.449Z,9.92
2017-04-22T00:08:36.074Z,9.99
2017-04-22T00:09:16.696Z,10.04
2017-04-22T00:09:57.308Z,9.98
2017-04-22T00:10:37.917Z,9.97
2017-04-22T00:11:18.517Z,9.99
2017-04-22T00:11:59.137Z,10.12
2017-04-22T00:12:39.758Z,10.09
2017-04-22T00:13:20.387Z,10.07
2017-04-22T00:14:00.984Z,10.15
2017-04-22T00:14:41.573Z,10.2
2017-04-22T00:15:22.220Z,10.15
2017-04-22T00:16:02.802Z,10.07
2017-04-22T00:16:43.395Z,10.12
2017-04-22T00:17:24.001Z,10.07
2017-04-22T00:18:04.686Z,10.12
2017-04-22T00:18:45.311Z,10.16
2017-04-22T00:19:25.921Z,9.99
2017-04-22T00:20:06.534Z,10.09
2017-04-22T00:20:47.155Z,10.04
2017-04-22T00:21:27.769Z,10.07
2017-04-22T00:22:08.397Z,10.04
2017-04-22T00:22:49.024Z,9.94
2017-04-22T00:23:29.615Z,9.89
2017-04-22T00:24:10.205Z,9.83
2017-04-22T00:24:50.814Z,9.79
2017-04-22T00:25:31.452Z,9.74
2017-04-22T00:26:12.060Z,9.73
2017-04-22T00:26:52.649Z,9.73
2017-04-22T00:27:33.259Z,9.66
2017-04-22T00:28:13.844Z,9.73
2017-04-22T00:28:54.417Z,9.66
2017-04-22T00:29:35.037Z,9.66
2017-04-22T00:30:15.637Z,9.73
2017-04-22T00:30:56.234Z,9.69
2017-04-22T00:31:36.840Z,9.64
2017-04-22T00:32:17.441Z,9.69
2017-04-22T00:32:58.038Z,9.68
2017-04-22T00:33:38.584Z,9.72
2017-04-22T00:34:19.186Z,9.68
2017-04-22T00:34:59.857Z,9.65
2017-04-22T00:35:40.434Z,9.59
2017-04-22T00:36:21.038Z,9.5
2017-04-22T00:37:01.619Z,9.58
2017-04-22T00:37:42.186Z,9.51
2017-04-22T00:38:22.778Z,9.51
2017-04-22T00:39:03.375Z,9.46
2017-04-22T00:39:43.956Z,9.5
2017-04-22T00:40:24.590Z,9.5
2017-04-22T00:41:05.214Z,9.54
2017-04-22T00:41:45.804Z,9.47
2017-04-22T00:42:26.398Z,9.51
2017-04-22T00:43:06.977Z,9.5
2017-04-22T00:43:47.609Z,9.44
2017-04-22T00:44:28.216Z,9.43
2017-04-22T00:45:08.812Z,9.44
2017-04-22T00:45:49.413Z,9.46
2017-04-22T00:46:29.990Z,9.48
2017-04-22T00:47:10.557Z,9.48
2017-04-22T00:47:51.180Z,9.47
2017-04-22T00:48:31.785Z,9.4
2017-04-22T00:49:12.370Z,9.39
2017-04-22T00:49:52.938Z,9.39
2017-04-22T00:50:33.513Z,9.37
2017-04-22T00:51:14.100Z,9.37
2017-04-22T00:51:54.695Z,9.28
2017-04-22T00:52:35.278Z,9.36
2017-04-22T00:53:15.863Z,9.25
2017-04-22T00:53:56.458Z,9.26
2017-04-22T00:54:37.042Z,9.19
2017-04-22T00:55:17.654Z,9.13
2017-04-22T00:55:58.225Z,9.26
2017-04-22T00:56:38.868Z,9.21
2017-04-22T00:57:19.495Z,9.18
2017-04-22T00:58:00.071Z,9.06
2017-04-22T00:58:40.638Z,9.11
2017-04-22T00:59:21.233Z,9.02
2017-04-22T01:00:01.803Z,8.95
2017-04-22T01:00:42.392Z,9.06
2017-04-22T01:01:23.006Z,8.97
2017-04-22T01:02:03.698Z,8.94
2017-04-22T01:02:44.308Z,8.95
2017-04-22T01:03:24.967Z,8.95
2017-04-22T01:04:05.555Z,8.92
2017-04-22T01:04:46.186Z,8.95
2017-04-22T01:05:26.796Z,8.95
2017-04-22T01:06:07.426Z,8.92
2017-04-22T01:06:48.050Z,8.94
2017-04-22T01:07:28.654Z,8.95
2017-04-22T01:08:09.272Z,9
2017-04-22T01:08:49.880Z,8.91
2017-04-22T01:09:30.481Z,8.91
2017-04-22T01:10:11.113Z,8.92
2017-04-22T01:10:51.705Z,8.95
2017-04-22T01:11:32.317Z,9.02
2017-04-22T01:12:12.937Z,8.97
2017-04-22T01:12:53.530Z,9.03
2017-04-22T01:13:34.147Z,8.94
2017-04-22T01:14:14.738Z,8.91
2017-04-22T01:14:55.338Z,8.84
2017-04-22T01:15:35.927Z,8.92
2017-04-22T01:16:16.529Z,8.87
2017-04-22T01:16:57.100Z,8.87
2017-04-22T01:17:37.676Z,8.87
2017-04-22T01:18:18.309Z,8.88
2017-04-22T01:18:58.915Z,8.91
2017-04-22T01:19:39.529Z,8.92
2017-04-22T01:20:20.123Z,8.87
2017-04-22T01:21:00.768Z,8.94
2017-04-22T01:21:41.338Z,8.84
2017-04-22T01:22:21.932Z,8.89
2017-04-22T01:23:02.535Z,8.91
2017-04-22T01:23:43.167Z,8.91
2017-04-22T01:24:23.741Z,8.91
2017-04-22T01:25:04.345Z,8.91
2017-04-22T01:25:44.960Z,8.92
2017-04-22T01:26:25.616Z,8.94
2017-04-22T01:27:06.350Z,8.91
2017-04-22T01:27:46.890Z,8.88
2017-04-22T01:28:27.459Z,8.87
2017-04-22T01:29:08.152Z,8.74
2017-04-22T01:29:48.754Z,8.81
2017-04-22T01:30:29.371Z,8.71
2017-04-22T01:31:10.008Z,8.69
2017-04-22T01:31:50.600Z,8.61
2017-04-22T01:32:31.211Z,8.61
2017-04-22T01:33:11.883Z,8.53
2017-04-22T01:33:52.503Z,8.56
2017-04-22T01:34:33.129Z,8.51
2017-04-22T01:35:13.708Z,8.61
2017-04-22T01:35:54.376Z,8.64
2017-04-22T01:36:34.953Z,8.66
2017-04-22T01:37:15.561Z,8.58
2017-04-22T01:37:56.169Z,8.56
2017-04-22T01:38:36.756Z,8.51
2017-04-22T01:39:17.441Z,8.48
2017-04-22T01:39:58.074Z,8.58
2017-04-22T01:40:38.692Z,8.51
2017-04-22T01:41:19.316Z,8.61
2017-04-22T01:41:59.926Z,8.67
2017-04-22T01:42:40.534Z,8.58
2017-04-22T01:43:21.146Z,8.61
2017-04-22T01:44:01.725Z,8.61
2017-04-22T01:44:42.352Z,8.63
2017-04-22T01:45:22.985Z,8.55
2017-04-22T01:46:03.599Z,8.53
2017-04-22T01:46:44.290Z,8.56
2017-04-22T01:47:24.899Z,8.63
2017-04-22T01:48:05.493Z,8.52
2017-04-22T01:48:46.106Z,8.52
2017-04-22T01:49:26.715Z,8.49
2017-04-22T01:50:07.294Z,8.49
2017-04-22T01:50:47.922Z,8.49
2017-04-22T01:51:28.528Z,8.51
2017-04-22T01:52:09.109Z,8.49
2017-04-22T01:52:49.771Z,8.46
2017-04-22T01:53:30.377Z,8.49
2017-04-22T01:54:10.990Z,8.46
2017-04-22T01:54:51.601Z,8.48
2017-04-22T01:55:32.230Z,8.44
2017-04-22T01:56:12.860Z,8.38
2017-04-22T01:56:53.512Z,8.42
2017-04-22T01:57:34.107Z,8.37
2017-04-22T01:58:14.717Z,8.44
2017-04-22T01:58:55.325Z,8.41
2017-04-22T01:59:35.929Z,8.44
2017-04-22T02:00:16.528Z,8.44
2017-04-22T02:00:57.107Z,8.42
2017-04-22T02:01:37.677Z,8.42
2017-04-22T02:02:18.259Z,8.45
2017-04-22T02:02:58.864Z,8.49
2017-04-22T02:03:39.470Z,8.42
2017-04-22T02:04:20.060Z,8.46
2017-04-22T02:05:00.823Z,8.45
2017-04-22T02:05:41.416Z,8.52
2017-04-22T02:06:22.013Z,8.38
2017-04-22T02:07:02.596Z,8.33
2017-04-22T02:07:43.228Z,8.41
2017-04-22T02:08:23.831Z,8.28
2017-04-22T02:09:04.463Z,8.33
2017-04-22T02:09:45.051Z,8.37
2017-04-22T02:10:25.630Z,8.3
2017-04-22T02:11:06.219Z,8.37
2017-04-22T02:11:46.900Z,8.37
2017-04-22T02:12:27.494Z,8.37
2017-04-22T02:13:08.075Z,8.33
2017-04-22T02:13:48.651Z,8.38
2017-04-22T02:14:29.246Z,8.37
2017-04-22T02:15:09.838Z,8.37
2017-04-22T02:15:50.414Z,8.33
2017-04-22T02:16:30.993Z,8.3
2017-04-22T02:17:11.586Z,8.31
2017-04-22T02:17:52.171Z,8.36
2017-04-22T02:18:32.750Z,8.28
2017-04-22T02:19:13.341Z,8.31
2017-04-22T02:19:53.943Z,8.31
2017-04-22T02:20:34.526Z,8.36
2017-04-22T02:21:15.100Z,8.28
2017-04-22T02:21:55.671Z,8.36
2017-04-22T02:22:36.301Z,8.34
2017-04-22T02:23:16.899Z,8.33
2017-04-22T02:23:57.524Z,8.37
2017-04-22T02:24:38.123Z,8.34
2017-04-22T02:25:18.704Z,8.36
2017-04-22T02:25:59.318Z,8.44
2017-04-22T02:26:39.910Z,8.38
2017-04-22T02:27:20.484Z,8.42
2017-04-22T02:28:01.074Z,8.41
2017-04-22T02:28:41.724Z,8.38
2017-04-22T02:29:22.281Z,8.36
2017-04-22T02:30:02.871Z,8.38
2017-04-22T02:30:43.434Z,8.33
2017-04-22T02:31:24.026Z,8.41
2017-04-22T02:32:04.584Z,8.38
2017-04-22T02:32:45.164Z,8.38
2017-04-22T02:33:25.770Z,8.36
2017-04-22T02:34:06.338Z,8.3
2017-04-22T02:34:46.951Z,8.3
2017-04-22T02:35:27.526Z,8.31
2017-04-22T02:36:08.117Z,8.31
2017-04-22T02:36:48.741Z,8.36
2017-04-22T02:37:29.407Z,8.36
2017-04-22T02:38:10.069Z,8.37
2017-04-22T02:38:50.609Z,8.33
2017-04-22T02:39:31.190Z,8.33
2017-04-22T02:40:11.798Z,8.34
2017-04-22T02:40:52.374Z,8.36
2017-04-22T02:41:33.006Z,8.28
2017-04-22T02:42:13.586Z,8.38
2017-04-22T02:42:54.202Z,8.36
2017-04-22T02:43:34.771Z,8.31
2017-04-22T02:44:15.354Z,8.28
2017-04-22T02:44:55.959Z,8.33
2017-04-22T02:45:36.543Z,8.34
2017-04-22T02:46:17.117Z,8.33
2017-04-22T02:46:57.712Z,8.33
2017-04-22T02:47:38.293Z,8.34
2017-04-22T02:48:18.894Z,8.41
2017-04-22T02:48:59.504Z,8.37
2017-04-22T02:49:40.078Z,8.33
2017-04-22T02:50:20.647Z,8.37
2017-04-22T02:51:01.246Z,8.31
2017-04-22T02:51:41.839Z,8.34
2017-04-22T02:52:22.413Z,8.28
2017-04-22T02:53:03.005Z,8.34
2017-04-22T02:53:43.623Z,8.34
2017-04-22T02:54:24.193Z,8.33
2017-04-22T02:55:04.775Z,8.33
2017-04-22T02:55:45.376Z,8.37
2017-04-22T02:56:25.961Z,8.33
2017-04-22T02:57:06.546Z,8.33
2017-04-22T02:57:47.145Z,8.36
2017-04-22T02:58:27.718Z,8.31
2017-04-22T02:59:08.310Z,8.3
2017-04-22T02:59:48.887Z,8.31
2017-04-22T03:00:29.476Z,8.33
2017-04-22T03:01:10.043Z,8.31
2017-04-22T03:01:50.624Z,8.38
2017-04-22T03:02:31.226Z,8.24
2017-04-22T03:03:11.846Z,8.31
2017-04-22T03:03:52.474Z,8.26
2017-04-22T03:04:33.098Z,8.23
2017-04-22T03:05:13.696Z,8.27
2017-04-22T03:05:54.331Z,8.24
2017-04-22T03:06:34.885Z,8.24
2017-04-22T03:07:15.450Z,8.24
2017-04-22T03:07:56.081Z,8.2
2017-04-22T03:08:36.675Z,8.23
2017-04-22T03:09:17.238Z,8.24
2017-04-22T03:09:57.928Z,8.19
2017-04-22T03:10:38.507Z,8.24
2017-04-22T03:11:19.072Z,8.23
2017-04-22T03:11:59.699Z,8.24
2017-04-22T03:12:40.275Z,8.24
2017-04-22T03:13:20.887Z,8.19
2017-04-22T03:14:01.466Z,8.24
2017-04-22T03:14:42.055Z,8.18
2017-04-22T03:15:22.667Z,8.26
2017-04-22T03:16:03.266Z,8.24
2017-04-22T03:16:43.878Z,8.18
2017-04-22T03:17:24.465Z,8.2
2017-04-22T03:18:05.078Z,8.2
2017-04-22T03:18:45.665Z,8.19
2017-04-22T03:19:26.265Z,8.13
2017-04-22T03:20:06.873Z,8.13
2017-04-22T03:20:47.447Z,8.18
2017-04-22T03:21:28.034Z,8.18
2017-04-22T03:22:08.623Z,8.19
2017-04-22T03:22:49.234Z,8.13
2017-04-22T03:23:29.806Z,8.12
2017-04-22T03:24:10.389Z,8.15
2017-04-22T03:24:51.007Z,8.12
2017-04-22T03:25:31.584Z,8.16
2017-04-22T03:26:12.165Z,8.15
2017-04-22T03:26:52.762Z,8.12
2017-04-22T03:27:33.358Z,8.01
2017-04-22T03:28:13.953Z,8.01
2017-04-22T03:28:54.523Z,8
2017-04-22T03:29:35.105Z,8
2017-04-22T03:30:15.687Z,8.12
2017-04-22T03:30:56.283Z,8.03
2017-04-22T03:31:36.853Z,8.01
2017-04-22T03:32:17.417Z,7.98
2017-04-22T03:32:58.005Z,8.03
2017-04-22T03:33:38.637Z,8.01
2017-04-22T03:34:19.182Z,8.06
2017-04-22T03:34:59.797Z,8.06
2017-04-22T03:35:40.398Z,8.03
2017-04-22T03:36:20.960Z,8.06
2017-04-22T03:37:01.575Z,8.06
2017-04-22T03:37:42.142Z,8.03
2017-04-22T03:38:22.739Z,8.03
2017-04-22T03:39:03.304Z,8.06
2017-04-22T03:39:43.900Z,8.09
2017-04-22T03:40:24.469Z,8.05
2017-04-22T03:41:05.039Z,8.05
2017-04-22T03:41:45.636Z,8.05
2017-04-22T03:42:26.242Z,8.03
2017-04-22T03:43:06.812Z,8.03
2017-04-22T03:43:47.456Z,8.05
2017-04-22T03:44:27.995Z,8.06
2017-04-22T03:45:08.567Z,8
2017-04-22T03:45:49.149Z,8.01
2017-04-22T03:46:29.733Z,8.01
2017-04-22T03:47:10.356Z,8.06
2017-04-22T03:47:50.972Z,8.01
2017-04-22T03:48:31.536Z,7.94
2017-04-22T03:49:12.106Z,8
2017-04-22T03:49:52.702Z,7.88
2017-04-22T03:50:33.342Z,7.91
2017-04-22T03:51:13.958Z,7.9
2017-04-22T03:51:54.574Z,7.93
2017-04-22T03:52:35.131Z,7.87
2017-04-22T03:53:15.723Z,8
2017-04-22T03:53:56.314Z,7.87
2017-04-22T03:54:36.908Z,7.9
2017-04-22T03:55:17.498Z,8.05
2017-04-22T03:55:58.095Z,7.94
2017-04-22T03:56:38.684Z,8.03
2017-04-22T03:57:19.281Z,8.03
2017-04-22T03:57:59.847Z,8.03
2017-04-22T03:58:40.420Z,8.12
2017-04-22T03:59:20.988Z,8.03
2017-04-22T04:00:01.636Z,8.01
2017-04-22T04:00:42.292Z,8.06
2017-04-22T04:01:22.899Z,7.97
2017-04-22T04:02:03.568Z,8.03
2017-04-22T04:02:46.887Z,7.88
2017-04-22T04:04:34.367Z,7.88
2017-04-22T04:05:14.966Z,7.85
2017-04-22T04:05:55.599Z,7.82
2017-04-22T04:06:36.183Z,7.87
2017-04-22T04:07:16.783Z,7.88
2017-04-22T04:07:57.368Z,7.8
2017-04-22T04:08:37.972Z,7.77
2017-04-22T04:09:18.567Z,7.9
2017-04-22T04:09:59.166Z,7.87
2017-04-22T04:10:39.765Z,7.93
2017-04-22T04:11:20.337Z,7.87
2017-04-22T04:12:00.919Z,7.83
2017-04-22T04:12:41.498Z,7.87
2017-04-22T04:13:22.136Z,7.83
2017-04-22T04:14:02.739Z,7.85
2017-04-22T04:14:43.324Z,7.9
2017-04-22T04:15:24.027Z,7.85
2017-04-22T04:16:04.648Z,7.9
2017-04-22T04:16:45.247Z,7.97
2017-04-22T04:17:25.843Z,7.93
2017-04-22T04:18:06.480Z,7.97
2017-04-22T04:18:47.051Z,7.91
2017-04-22T04:19:27.627Z,7.9
2017-04-22T04:20:08.345Z,7.98
2017-04-22T04:20:48.931Z,7.95
2017-04-22T04:21:29.507Z,7.95
2017-04-22T04:22:10.174Z,8.08
2017-04-22T04:22:50.766Z,8.06
2017-04-22T04:23:31.383Z,8.05
2017-04-22T04:24:11.957Z,8.03
2017-04-22T04:24:52.597Z,8.01
2017-04-22T04:25:33.164Z,8.03
2017-04-22T04:26:13.774Z,7.98
2017-04-22T04:26:54.366Z,8.01
2017-04-22T04:27:34.971Z,8.01
2017-04-22T04:28:15.538Z,8.05
2017-04-22T04:28:56.119Z,8.03
2017-04-22T04:29:36.682Z,8.08
2017-04-22T04:30:17.326Z,8.08
2017-04-22T04:30:57.977Z,8
2017-04-22T04:31:38.486Z,8.18
2017-04-22T04:32:19.075Z,8.09
2017-04-22T04:32:59.693Z,8.12
2017-04-22T04:33:40.387Z,8.09
2017-04-22T04:34:20.930Z,8.12
2017-04-22T04:35:01.507Z,8.12
2017-04-22T04:35:42.088Z,8.16
2017-04-22T04:36:22.679Z,8.12
2017-04-22T04:37:03.267Z,8.18
2017-04-22T04:37:43.860Z,8.09
2017-04-22T04:38:24.439Z,8.12
2017-04-22T04:39:05.047Z,8.13
2017-04-22T04:39:45.619Z,8.13
2017-04-22T04:40:26.196Z,8.13
2017-04-22T04:41:06.824Z,8.13
2017-04-22T04:41:47.446Z,8.19
2017-04-22T04:42:28.023Z,8.19
2017-04-22T04:43:08.605Z,8.18
2017-04-22T04:43:49.197Z,8.15
2017-04-22T04:44:29.784Z,8.23
2017-04-22T04:45:10.381Z,8.16
2017-04-22T04:45:50.959Z,8.15
2017-04-22T04:46:31.590Z,8.09
2017-04-22T04:47:12.205Z,8.16
2017-04-22T04:47:52.757Z,8.12
2017-04-22T04:48:33.333Z,8.13
2017-04-22T04:49:13.970Z,8.12
2017-04-22T04:49:54.550Z,8.15
2017-04-22T04:50:35.170Z,8.16
2017-04-22T04:51:15.775Z,8.1
2017-04-22T04:51:56.355Z,8.15
2017-04-22T04:52:36.931Z,8.05
2017-04-22T04:53:17.515Z,8.18
2017-04-22T04:53:58.124Z,8.18
2017-04-22T04:54:38.704Z,8.06
2017-04-22T04:55:19.287Z,8.12
2017-04-22T04:55:59.901Z,8.06
2017-04-22T04:56:40.470Z,8.03
2017-04-22T04:57:21.068Z,8.01
2017-04-22T04:58:01.698Z,8.01
2017-04-22T04:58:42.312Z,8.06
2017-04-22T04:59:22.887Z,8.03
2017-04-22T05:00:03.483Z,8
2017-04-22T05:00:44.081Z,7.98
2017-04-22T05:01:24.692Z,8.09
2017-04-22T05:02:05.291Z,8.06
2017-04-22T05:02:45.934Z,8.15
2017-04-22T05:03:26.495Z,8.09
2017-04-22T05:04:07.079Z,8.1
2017-04-22T05:04:47.733Z,8.1
2017-04-22T05:05:28.311Z,8.15
2017-04-22T05:06:08.888Z,8.18
2017-04-22T05:06:49.480Z,8.2
2017-04-22T05:07:30.119Z,8.19
2017-04-22T05:08:10.734Z,8.19
2017-04-22T05:08:51.356Z,8.24
2017-04-22T05:09:31.995Z,8.27
2017-04-22T05:10:12.625Z,8.2
2017-04-22T05:10:53.220Z,8.24
2017-04-22T05:11:33.826Z,8.23
2017-04-22T05:12:14.399Z,8.2
2017-04-22T05:12:54.991Z,8.2
2017-04-22T05:13:35.584Z,8.16
2017-04-22T05:14:16.149Z,8.18
2017-04-22T05:14:56.748Z,8.2
2017-04-22T05:15:37.315Z,8.23
2017-04-22T05:16:17.893Z,8.23
2017-04-22T05:16:58.486Z,8.19
2017-04-22T05:17:39.060Z,8.18
2017-04-22T05:18:19.660Z,8.3
2017-04-22T05:19:00.234Z,8.24
2017-04-22T05:19:40.805Z,8.31
2017-04-22T05:20:21.411Z,8.28
2017-04-22T05:21:02.016Z,8.23
2017-04-22T05:21:42.773Z,8.24
2017-04-22T05:22:23.372Z,8.23
2017-04-22T05:23:03.941Z,8.27
2017-04-22T05:23:44.527Z,8.19
2017-04-22T05:24:25.104Z,8.2
2017-04-22T05:25:05.688Z,8.13
2017-04-22T05:25:46.276Z,8.12
2017-04-22T05:26:26.844Z,8.15
2017-04-22T05:27:07.428Z,8.16
2017-04-22T05:27:48.000Z,8.19
2017-04-22T05:28:28.581Z,8.1
2017-04-22T05:29:09.165Z,8.15
2017-04-22T05:29:49.757Z,8.16
2017-04-22T05:30:30.360Z,8.18
2017-04-22T05:31:10.951Z,8.18
2017-04-22T05:31:51.537Z,8.24
2017-04-22T05:32:32.100Z,8.26
2017-04-22T05:33:12.683Z,8.27
2017-04-22T05:33:53.294Z,8.24
2017-04-22T05:34:33.872Z,8.3
2017-04-22T05:35:14.526Z,8.3
2017-04-22T05:35:55.106Z,8.26
2017-04-22T05:36:35.694Z,8.24
2017-04-22T05:37:16.282Z,8.27
2017-04-22T05:37:56.898Z,8.2
2017-04-22T05:38:37.476Z,8.26
2017-04-22T05:39:18.066Z,8.2
2017-04-22T05:39:58.657Z,8.2
2017-04-22T05:40:39.314Z,8.2
2017-04-22T05:41:19.883Z,8.23
2017-04-22T05:42:00.479Z,8.18
2017-04-22T05:42:41.065Z,8.18
2017-04-22T05:43:21.663Z,8.15
2017-04-22T05:44:02.237Z,8.13
2017-04-22T05:44:42.774Z,8.16
2017-04-22T05:45:23.362Z,8.23
2017-04-22T05:46:03.943Z,8.2
2017-04-22T05:46:44.547Z,8.24
2017-04-22T05:47:25.155Z,8.23
2017-04-22T05:48:05.766Z,8.19
2017-04-22T05:48:46.342Z,8.26
2017-04-22T05:49:26.941Z,8.23
2017-04-22T05:50:07.624Z,8.26
2017-04-22T05:50:48.209Z,8.31
2017-04-22T05:51:28.807Z,8.34
2017-04-22T05:52:09.409Z,8.34
2017-04-22T05:52:50.029Z,8.26
2017-04-22T05:53:30.630Z,8.3
2017-04-22T05:54:11.210Z,8.3
2017-04-22T05:54:51.790Z,8.33
2017-04-22T05:55:32.407Z,8.33
2017-04-22T05:56:12.991Z,8.33
2017-04-22T05:56:53.615Z,8.36
2017-04-22T05:57:34.194Z,8.33
2017-04-22T05:58:14.777Z,8.27
2017-04-22T05:58:55.379Z,8.38
2017-04-22T05:59:36.021Z,8.36
2017-04-22T06:00:16.629Z,8.34
2017-04-22T06:00:57.235Z,8.41
2017-04-22T06:01:37.811Z,8.37
2017-04-22T06:02:18.435Z,8.44
2017-04-22T06:02:59.020Z,8.46
2017-04-22T06:03:39.595Z,8.45
2017-04-22T06:04:20.193Z,8.37
2017-04-22T06:05:00.814Z,8.55
2017-04-22T06:05:41.394Z,8.53
2017-04-22T06:06:21.977Z,8.49
2017-04-22T06:07:02.563Z,8.38
2017-04-22T06:07:43.153Z,8.55
2017-04-22T06:08:23.753Z,8.41
2017-04-22T06:09:04.332Z,8.51
2017-04-22T06:09:44.938Z,8.45
2017-04-22T06:10:25.551Z,8.48
2017-04-22T06:11:06.132Z,8.45
2017-04-22T06:11:46.762Z,8.44
2017-04-22T06:12:27.347Z,8.46
2017-04-22T06:13:07.949Z,8.49
2017-04-22T06:13:48.543Z,8.51
2017-04-22T06:14:29.205Z,8.51
2017-04-22T06:15:09.817Z,8.61
2017-04-22T06:15:50.409Z,8.64
2017-04-22T06:16:31.036Z,8.63
2017-04-22T06:17:11.644Z,8.63
2017-04-22T06:17:52.208Z,8.78
2017-04-22T06:18:32.785Z,8.81
2017-04-22T06:19:13.375Z,8.78
2017-04-22T06:19:53.948Z,8.84
2017-04-22T06:20:34.530Z,8.92
2017-04-22T06:21:15.117Z,8.88
2017-04-22T06:21:55.701Z,8.88
2017-04-22T06:22:36.303Z,8.95
2017-04-22T06:23:16.917Z,8.94
2017-04-22T06:23:57.500Z,9
2017-04-22T06:24:38.111Z,8.94
2017-04-22T06:25:18.720Z,9.02
2017-04-22T06:25:59.311Z,9.14
2017-04-22T06:26:39.909Z,9.14
2017-04-22T06:27:20.492Z,9.13
2017-04-22T06:28:01.076Z,9.02
2017-04-22T06:28:41.678Z,9.13
2017-04-22T06:29:22.299Z,9.11
2017-04-22T06:30:02.889Z,9.22
2017-04-22T06:30:43.517Z,9.1
2017-04-22T06:31:24.106Z,9.13
2017-04-22T06:32:04.705Z,9.18
2017-04-22T06:32:45.302Z,9.06
2017-04-22T06:33:25.886Z,9.04
2017-04-22T06:34:06.498Z,9.11
2017-04-22T06:34:47.166Z,9.02
2017-04-22T06:35:27.751Z,8.99
2017-04-22T06:36:08.360Z,9.02
2017-04-22T06:36:48.975Z,8.99
2017-04-22T06:37:29.564Z,8.91
2017-04-22T06:38:10.177Z,8.91
2017-04-22T06:38:50.762Z,9.04
2017-04-22T06:39:31.369Z,9.18
2017-04-22T06:40:11.951Z,9.26
2017-04-22T06:40:52.574Z,9.28
2017-04-22T06:41:33.157Z,9.28
2017-04-22T06:42:13.725Z,9.37
2017-04-22T06:42:54.337Z,9.39
2017-04-22T06:43:34.990Z,9.26
2017-04-22T06:44:15.583Z,9.29
2017-04-22T06:44:56.151Z,9.22
2017-04-22T06:45:36.755Z,9.18
2017-04-22T06:46:17.334Z,9.26
2017-04-22T06:46:57.917Z,9.23
2017-04-22T06:47:38.509Z,9.14
2017-04-22T06:48:19.082Z,9.1
2017-04-22T06:48:59.673Z,9.13
2017-04-22T06:49:40.246Z,9.13
2017-04-22T06:50:20.832Z,8.97
2017-04-22T06:51:01.491Z,9
2017-04-22T06:51:42.067Z,9.08
2017-04-22T06:52:22.653Z,9.22
2017-04-22T06:53:03.261Z,9.14
2017-04-22T06:53:43.862Z,9.14
2017-04-22T06:54:24.445Z,9.1
2017-04-22T06:55:05.037Z,9.13
2017-04-22T06:55:45.627Z,8.94
2017-04-22T06:56:26.217Z,8.92
2017-04-22T06:57:06.789Z,9.02
2017-04-22T06:57:47.359Z,8.88
2017-04-22T06:58:27.933Z,8.89
2017-04-22T06:59:08.642Z,8.87
2017-04-22T06:59:49.232Z,8.81
2017-04-22T07:00:29.844Z,8.74
2017-04-22T07:01:10.477Z,8.78
2017-04-22T07:01:51.048Z,8.84
2017-04-22T07:02:31.642Z,8.85
2017-04-22T07:03:12.217Z,8.91
2017-04-22T07:03:52.810Z,8.87
2017-04-22T07:04:33.430Z,8.89
2017-04-22T07:05:13.969Z,9.03
2017-04-22T07:05:54.626Z,8.97
2017-04-22T07:06:35.178Z,9
2017-04-22T07:07:15.842Z,9
2017-04-22T07:07:56.445Z,8.92
2017-04-22T07:08:37.225Z,8.91
2017-04-22T07:09:17.802Z,8.92
2017-04-22T07:09:58.399Z,8.91
2017-04-22T07:10:39.002Z,8.92
2017-04-22T07:11:19.616Z,8.91
2017-04-22T07:12:00.236Z,8.78
2017-04-22T07:12:40.915Z,8.74
2017-04-22T07:13:21.504Z,8.82
2017-04-22T07:14:02.096Z,8.73
2017-04-22T07:14:42.664Z,8.81
2017-04-22T07:15:23.310Z,8.82
2017-04-22T07:16:03.887Z,8.76
2017-04-22T07:16:44.483Z,8.7
2017-04-22T07:17:25.102Z,8.78
2017-04-22T07:18:05.704Z,8.7
2017-04-22T07:18:46.373Z,8.6
2017-04-22T07:19:27.128Z,8.63
2017-04-22T07:20:07.798Z,8.58
2017-04-22T07:20:48.611Z,8.61
2017-04-22T07:21:29.166Z,8.61
2017-04-22T07:22:09.816Z,8.61
2017-04-22T07:22:50.396Z,8.53
2017-04-22T07:23:31.011Z,8.46
2017-04-22T07:24:11.729Z,8.49
2017-04-22T07:24:52.302Z,8.52
2017-04-22T07:25:32.899Z,8.46
2017-04-22T07:26:13.497Z,8.52
2017-04-22T07:26:54.074Z,8.58
2017-04-22T07:27:34.654Z,8.48
2017-04-22T07:28:15.269Z,8.56
2017-04-22T07:28:55.837Z,8.58
2017-04-22T07:29:36.418Z,8.53
2017-04-22T07:30:16.997Z,8.51
2017-04-22T07:30:57.581Z,8.52
2017-04-22T07:31:38.158Z,8.63
2017-04-22T07:32:18.766Z,8.6
2017-04-22T07:32:59.351Z,8.64
2017-04-22T07:33:39.967Z,8.66
2017-04-22T07:34:20.527Z,8.67
2017-04-22T07:35:01.117Z,8.67
2017-04-22T07:35:41.713Z,8.67
2017-04-22T07:36:22.303Z,8.64
2017-04-22T07:37:02.909Z,8.7
2017-04-22T07:37:43.493Z,8.61
2017-04-22T07:38:24.115Z,8.63
2017-04-22T07:39:04.722Z,8.66
2017-04-22T07:39:45.430Z,8.52
2017-04-22T07:40:26.001Z,8.38
2017-04-22T07:41:06.636Z,8.49
2017-04-22T07:41:47.215Z,8.42
2017-04-22T07:42:27.811Z,8.42
2017-04-22T07:43:08.376Z,8.45
2017-04-22T07:43:48.973Z,8.49
2017-04-22T07:44:29.539Z,8.45
2017-04-22T07:45:10.106Z,8.45
2017-04-22T07:45:50.739Z,8.49
2017-04-22T07:46:31.377Z,8.51
2017-04-22T07:47:11.965Z,8.33
2017-04-22T07:47:52.536Z,8.48
2017-04-22T07:48:33.117Z,8.42
2017-04-22T07:49:13.716Z,8.42
2017-04-22T07:49:54.306Z,8.41
2017-04-22T07:50:34.900Z,8.42
2017-04-22T07:51:15.500Z,8.45
2017-04-22T07:51:56.081Z,8.53
2017-04-22T07:52:36.665Z,8.53
2017-04-22T07:53:17.262Z,8.61
2017-04-22T07:53:57.842Z,8.6
2017-04-22T07:54:38.451Z,8.67
2017-04-22T07:55:19.047Z,8.66
2017-04-22T07:55:59.652Z,8.78
2017-04-22T07:56:40.229Z,8.7
2017-04-22T07:57:20.822Z,8.74
2017-04-22T07:58:01.428Z,8.78
2017-04-22T07:58:42.081Z,8.76
2017-04-22T07:59:22.676Z,8.71
2017-04-22T08:00:03.272Z,8.78
2017-04-22T08:00:43.861Z,8.63
2017-04-22T08:01:24.446Z,8.67
2017-04-22T08:02:05.046Z,8.61
2017-04-22T08:02:45.636Z,8.63
2017-04-22T08:03:26.221Z,8.51
2017-04-22T08:04:06.842Z,8.46
2017-04-22T08:04:47.433Z,8.52
2017-04-22T08:05:28.031Z,8.38
2017-04-22T08:06:08.621Z,8.53
2017-04-22T08:06:49.197Z,8.45
2017-04-22T08:07:29.800Z,8.48
2017-04-22T08:08:10.378Z,8.44
2017-04-22T08:08:51.113Z,8.44
2017-04-22T08:09:31.723Z,8.48
2017-04-22T08:10:12.302Z,8.55
2017-04-22T08:10:52.898Z,8.52
2017-04-22T08:11:33.578Z,8.6
2017-04-22T08:12:14.186Z,8.66
2017-04-22T08:12:54.770Z,8.67
2017-04-22T08:13:35.443Z,8.74
2017-04-22T08:14:16.121Z,8.73
2017-04-22T08:14:56.738Z,8.91
2017-04-22T08:15:37.316Z,8.91
2017-04-22T08:16:17.892Z,8.92
2017-04-22T08:16:58.473Z,8.97
2017-04-22T08:17:39.076Z,8.91
2017-04-22T08:18:19.662Z,8.95
2017-04-22T08:19:00.248Z,8.92
2017-04-22T08:19:40.831Z,9.08
2017-04-22T08:20:21.419Z,8.97
2017-04-22T08:21:02.006Z,8.94
2017-04-22T08:21:42.662Z,8.92
2017-04-22T08:22:23.257Z,8.94
2017-04-22T08:23:04.032Z,8.89
2017-04-22T08:23:44.617Z,8.94
2017-04-22T08:24:25.205Z,8.91
2017-04-22T08:25:05.825Z,8.92
2017-04-22T08:25:46.409Z,8.89
2017-04-22T08:26:27.002Z,8.95
2017-04-22T08:27:07.600Z,9
2017-04-22T08:27:48.221Z,9.06
2017-04-22T08:28:28.769Z,9.1
2017-04-22T08:29:09.330Z,9.06
2017-04-22T08:29:49.914Z,9.04
2017-04-22T08:30:30.501Z,9.13
2017-04-22T08:31:11.124Z,9.06
2017-04-22T08:31:51.772Z,9.1
2017-04-22T08:32:32.345Z,9.13
2017-04-22T08:33:12.938Z,9.08
2017-04-22T08:33:53.586Z,9.03
2017-04-22T08:34:34.230Z,9.11
2017-04-22T08:35:15.010Z,9.14
2017-04-22T08:35:55.629Z,9.1
2017-04-22T08:36:36.246Z,9.1
2017-04-22T08:37:16.850Z,9.08
2017-04-22T08:37:57.509Z,8.99
2017-04-22T08:38:38.101Z,9.13
2017-04-22T08:39:18.708Z,8.95
2017-04-22T08:39:59.371Z,9.1
2017-04-22T08:40:40.037Z,9.1
2017-04-22T08:41:20.598Z,8.99
2017-04-22T08:42:01.183Z,8.99
2017-04-22T08:42:41.794Z,9.06
2017-04-22T08:43:22.367Z,9.1
2017-04-22T08:44:02.956Z,9.08
2017-04-22T08:44:43.757Z,9.1
2017-04-22T08:45:24.206Z,9.13
2017-04-22T08:46:04.795Z,9.06
2017-04-22T08:46:45.408Z,8.97
2017-04-22T08:47:25.990Z,8.97
2017-04-22T08:48:06.614Z,9.11
2017-04-22T08:48:47.185Z,9
2017-04-22T08:49:27.784Z,8.99
2017-04-22T08:50:08.404Z,8.88
2017-04-22T08:50:49.015Z,8.94
2017-04-22T08:51:29.603Z,8.92
2017-04-22T08:52:10.228Z,8.91
2017-04-22T08:52:50.812Z,8.85
2017-04-22T08:53:31.409Z,8.76
2017-04-22T08:54:11.997Z,8.78
2017-04-22T08:54:52.561Z,8.74
2017-04-22T08:55:33.164Z,8.82
2017-04-22T08:56:13.770Z,8.78
2017-04-22T08:56:54.414Z,8.81
2017-04-22T08:57:35.134Z,8.74
2017-04-22T08:58:15.794Z,8.74
2017-04-22T08:58:56.390Z,8.76
2017-04-22T08:59:37.012Z,8.76
2017-04-22T09:00:17.635Z,8.78
2017-04-22T09:00:58.209Z,8.79
2017-04-22T09:01:38.796Z,8.76
2017-04-22T09:02:19.404Z,8.79
2017-04-22T09:02:59.998Z,8.74
2017-04-22T09:03:40.577Z,8.79